Time;durP1;ratioP1;P1;durP2;ratioP2;P2;SDS_P1;SDS_P2;PMS_P1;PMS_P2;Temp;Humidity;BMP_temperature;BMP_pressure;BME280_temperature;BME280_humidity;BME280_pressure;Samples;Min_cycle;Max_cycle;Signal;HPM_P1;HPM_P2
2022/05/29 00:00:38;;;;;;;4.95;2.30;;;;;;;;;;5053834;28;20532;-88
2022/05/29 00:03:05;;;;;;;11.07;3.05;;;;;;;;;;5054093;28;20053;-86
2022/05/29 00:05:32;;;;;;;4.70;2.28;;;;;;;;;;5052489;28;20091;-87
2022/05/29 00:08:00;;;;;;;4.00;2.13;;;;;;;;;;5053707;28;20131;-86
2022/05/29 00:10:27;;;;;;;8.27;2.85;;;;;;;;;;5053746;28;20497;-87
2022/05/29 00:12:54;;;;;;;3.85;2.55;;;;;;;;;;5053440;28;20049;-86
2022/05/29 00:15:21;;;;;;;6.70;2.50;;;;;;;;;;5054412;28;20141;-87
2022/05/29 00:17:49;;;;;;;3.05;2.47;;;;;;;;;;5054378;28;20044;-86
2022/05/29 00:20:16;;;;;;;4.78;2.65;;;;;;;;;;5053788;28;20139;-86
2022/05/29 00:22:43;;;;;;;5.18;2.58;;;;;;;;;;5054500;28;20049;-86
2022/05/29 00:25:11;;;;;;;11.60;3.20;;;;;;;;;;5053094;28;20568;-86
2022/05/29 00:27:38;;;;;;;8.65;3.50;;;;;;;;;;5059316;28;20045;-86
2022/05/29 00:30:07;;;;;;;5.97;2.78;;;;;;;;;;5067024;28;20041;-86
2022/05/29 00:32:35;;;;;;;5.28;2.55;;;;;;;;;;5053095;28;20063;-86
2022/05/29 00:35:02;;;;;;;3.05;2.35;;;;;;;;;;5054207;28;20077;-87
2022/05/29 00:37:31;;;;;;;4.97;2.47;;;;;;;;;;5053118;28;20143;-86
2022/05/29 00:39:58;;;;;;;4.90;2.80;;;;;;;;;;5054136;28;20063;-87
2022/05/29 00:42:25;;;;;;;7.50;2.70;;;;;;;;;;5053304;28;20053;-86
2022/05/29 00:44:53;;;;;;;7.68;3.28;;;;;;;;;;5053096;28;20049;-86
2022/05/29 00:47:20;;;;;;;4.20;2.53;;;;;;;;;;5053144;28;20045;-87
2022/05/29 00:49:49;;;;;;;4.72;2.85;;;;;;;;;;5053143;28;20048;-86
2022/05/29 00:52:28;;;;;;;4.13;2.67;;;;;;;;;;5052691;28;20402;-86
2022/05/29 00:54:56;;;;;;;5.50;2.40;;;;;;;;;;5052681;28;20049;-86
2022/05/29 00:57:44;;;;;;;6.20;2.67;;;;;;;;;;5052915;28;20139;-86
2022/05/29 01:00:14;;;;;;;8.52;2.88;;;;;;;;;;5036506;28;20136;-86
2022/05/29 01:02:42;;;;;;;6.68;2.45;;;;;;;;;;5052647;28;20128;-86
2022/05/29 01:05:11;;;;;;;3.55;2.35;;;;;;;;;;5052333;28;20131;-86
2022/05/29 01:07:39;;;;;;;7.30;3.00;;;;;;;;;;5053684;28;20053;-86
2022/05/29 01:10:07;;;;;;;11.50;4.10;;;;;;;;;;5053786;28;20472;-87
2022/05/29 01:12:43;;;;;;;5.97;2.88;;;;;;;;;;5053107;28;20135;-87
2022/05/29 01:15:20;;;;;;;7.43;2.70;;;;;;;;;;5053266;28;20096;-87
2022/05/29 01:18:02;;;;;;;7.85;3.20;;;;;;;;;;5052138;28;20127;-86
2022/05/29 01:20:32;;;;;;;5.82;2.50;;;;;;;;;;5053552;28;20139;-86
2022/05/29 01:23:14;;;;;;;9.18;3.40;;;;;;;;;;5052472;28;20048;-86
2022/05/29 01:26:00;;;;;;;6.35;2.70;;;;;;;;;;5051987;28;20053;-86
2022/05/29 01:28:33;;;;;;;5.15;2.55;;;;;;;;;;5052395;28;20131;-86
2022/05/29 01:31:19;;;;;;;5.47;2.80;;;;;;;;;;5053403;28;20044;-86
2022/05/29 01:33:49;;;;;;;4.97;2.38;;;;;;;;;;5052923;28;20053;-86
2022/05/29 01:36:24;;;;;;;7.28;3.05;;;;;;;;;;5052026;28;20045;-86
2022/05/29 01:39:03;;;;;;;7.97;3.20;;;;;;;;;;5053143;28;20140;-86
2022/05/29 01:41:48;;;;;;;7.20;2.85;;;;;;;;;;5052290;28;20140;-86
2022/05/29 01:44:18;;;;;;;7.57;3.20;;;;;;;;;;5057094;28;20113;-87
2022/05/29 01:46:48;;;;;;;6.05;2.78;;;;;;;;;;5065588;28;20088;-86
2022/05/29 01:49:15;;;;;;;8.02;3.03;;;;;;;;;;5053277;28;20080;-87
2022/05/29 01:52:05;;;;;;;5.30;2.90;;;;;;;;;;5053037;28;20136;-86
2022/05/29 01:54:41;;;;;;;4.72;2.60;;;;;;;;;;5052877;28;20091;-86
2022/05/29 01:57:19;;;;;;;4.90;2.60;;;;;;;;;;5051791;28;20092;-86
2022/05/29 02:00:05;;;;;;;2.58;2.30;;;;;;;;;;5051860;28;20052;-86
2022/05/29 02:02:42;;;;;;;6.32;2.60;;;;;;;;;;5051725;28;20057;-86
2022/05/29 02:05:14;;;;;;;8.15;3.25;;;;;;;;;;5051426;28;20060;-86
2022/05/29 02:07:47;;;;;;;4.00;3.25;;;;;;;;;;5051623;28;20060;-86
2022/05/29 02:10:17;;;;;;;7.50;3.10;;;;;;;;;;5051781;28;20076;-86
2022/05/29 02:12:48;;;;;;;6.18;3.08;;;;;;;;;;5052534;28;20124;-86
2022/05/29 02:15:19;;;;;;;4.40;3.33;;;;;;;;;;5051831;28;20051;-87
2022/05/29 02:17:49;;;;;;;9.25;3.30;;;;;;;;;;5051176;28;20075;-85
2022/05/29 02:20:23;;;;;;;6.72;3.45;;;;;;;;;;5051515;28;20061;-86
2022/05/29 02:22:54;;;;;;;6.28;2.92;;;;;;;;;;5052437;28;20094;-85
2022/05/29 02:25:23;;;;;;;6.57;2.72;;;;;;;;;;5051582;28;20140;-86
2022/05/29 02:27:53;;;;;;;7.10;3.20;;;;;;;;;;5052767;28;20123;-86
2022/05/29 02:30:22;;;;;;;5.63;3.08;;;;;;;;;;5056194;28;20084;-86
2022/05/29 02:33:01;;;;;;;5.60;2.10;;;;;;;;;;5056118;28;20084;-87
2022/05/29 02:35:32;;;;;;;5.18;2.85;;;;;;;;;;5056280;28;20465;-86
2022/05/29 02:38:11;;;;;;;3.72;2.47;;;;;;;;;;5056382;28;20106;-87
2022/05/29 02:40:45;;;;;;;4.28;2.80;;;;;;;;;;5054609;28;20079;-86
2022/05/29 02:43:20;;;;;;;5.60;3.10;;;;;;;;;;5055310;28;20055;-86
2022/05/29 02:45:57;;;;;;;6.88;2.92;;;;;;;;;;5056239;28;20045;-86
2022/05/29 02:48:31;;;;;;;9.40;3.42;;;;;;;;;;5055339;28;20053;-86
2022/05/29 02:51:14;;;;;;;4.50;2.70;;;;;;;;;;5055799;28;20132;-86
2022/05/29 02:53:42;;;;;;;;;;;;;;;;;;5056615;28;20049;-86
2022/05/29 02:56:10;;;;;;;6.55;2.45;;;;;;;;;;5038214;28;20385;-86
2022/05/29 02:58:38;;;;;;;10.20;3.08;;;;;;;;;;5055029;28;20057;-86
2022/05/29 03:01:16;;;;;;;5.00;2.75;;;;;;;;;;5059422;28;20047;-86
2022/05/29 03:03:52;;;;;;;5.05;3.00;;;;;;;;;;5065569;28;20131;-86
2022/05/29 03:06:29;;;;;;;5.93;2.92;;;;;;;;;;5054955;28;20049;-86
2022/05/29 03:09:11;;;;;;;4.78;3.00;;;;;;;;;;5054617;28;20140;-86
2022/05/29 03:11:41;;;;;;;5.57;2.93;;;;;;;;;;5055392;28;20076;-86
2022/05/29 03:14:11;;;;;;;8.52;3.83;;;;;;;;;;5054134;28;20382;-86
2022/05/29 03:16:43;;;;;;;7.70;3.35;;;;;;;;;;5055380;28;20135;-86
2022/05/29 03:19:10;;;;;;;5.10;3.10;;;;;;;;;;5054395;28;20053;-86
2022/05/29 03:21:51;;;;;;;6.97;3.42;;;;;;;;;;5054323;28;20132;-86
2022/05/29 03:24:25;;;;;;;7.13;3.50;;;;;;;;;;5055283;28;20412;-86
2022/05/29 03:27:13;;;;;;;6.80;3.17;;;;;;;;;;5054374;28;20523;-86
2022/05/29 03:29:42;;;;;;;6.78;2.92;;;;;;;;;;5037758;28;20049;-86
2022/05/29 03:32:09;;;;;;;8.25;3.67;;;;;;;;;;5054636;28;20128;-86
2022/05/29 03:34:37;;;;;;;5.38;3.08;;;;;;;;;;5054024;28;20098;-86
2022/05/29 03:37:06;;;;;;;8.18;3.30;;;;;;;;;;5054183;28;20132;-86
2022/05/29 03:39:33;;;;;;;6.53;3.13;;;;;;;;;;5053950;28;20087;-86
2022/05/29 03:42:01;;;;;;;7.60;3.20;;;;;;;;;;5054112;28;20045;-86
2022/05/29 03:44:28;;;;;;;8.10;3.20;;;;;;;;;;5054057;28;20048;-86
2022/05/29 03:46:56;;;;;;;6.40;3.20;;;;;;;;;;5054123;28;20464;-86
2022/05/29 03:49:24;;;;;;;6.80;3.58;;;;;;;;;;5053659;28;20049;-86
2022/05/29 03:51:51;;;;;;;6.35;3.63;;;;;;;;;;5053877;28;20479;-86
2022/05/29 03:54:20;;;;;;;6.13;3.30;;;;;;;;;;5053873;28;20132;-86
2022/05/29 03:56:47;;;;;;;6.57;3.58;;;;;;;;;;5057490;28;20194;-87
2022/05/29 03:59:14;;;;;;;9.77;3.25;;;;;;;;;;5084606;28;20056;-86
2022/05/29 04:01:41;;;;;;;6.57;3.60;;;;;;;;;;5090585;28;20068;-86
2022/05/29 04:04:09;;;;;;;6.57;3.38;;;;;;;;;;5074544;28;20134;-86
2022/05/29 04:06:40;;;;;;;7.75;3.75;;;;;;;;;;5087112;28;20053;-86
2022/05/29 04:12:07;;;;;;;16.40;8.30;;;;;;;;;;5075013;28;20049;-86
2022/05/29 04:14:36;;;;;;;8.18;5.25;;;;;;;;;;5092043;28;20115;-87
2022/05/29 04:17:03;;;;;;;7.75;5.68;;;;;;;;;;5075125;28;20106;-86
2022/05/29 04:19:31;;;;;;;11.02;6.40;;;;;;;;;;5100484;28;20091;-87
2022/05/29 04:21:58;;;;;;;12.65;7.13;;;;;;;;;;5074427;28;20131;-86
2022/05/29 04:24:25;;;;;;;16.05;9.40;;;;;;;;;;5085257;28;20131;-86
2022/05/29 04:26:53;;;;;;;11.48;7.38;;;;;;;;;;5090016;28;20047;-86
2022/05/29 04:29:20;;;;;;;6.15;5.55;;;;;;;;;;5074295;28;20102;-87
2022/05/29 04:34:35;;;;;;;7.60;5.60;;;;;;;;;;5074367;28;20048;-86
2022/05/29 04:37:03;;;;;;;6.50;3.65;;;;;;;;;;5081864;28;20132;-86
2022/05/29 04:39:34;;;;;;;9.60;4.18;;;;;;;;;;5089690;28;20132;-85
2022/05/29 04:42:01;;;;;;;5.50;3.75;;;;;;;;;;5090008;28;20057;-86
2022/05/29 04:44:29;;;;;;;7.88;4.22;;;;;;;;;;5089517;28;20508;-86
2022/05/29 04:46:58;;;;;;;10.45;4.95;;;;;;;;;;5089756;28;20049;-86
2022/05/29 04:49:26;;;;;;;7.90;4.55;;;;;;;;;;5085048;28;20052;-86
2022/05/29 04:51:53;;;;;;;6.63;4.60;;;;;;;;;;5073087;28;20087;-86
2022/05/29 04:54:20;;;;;;;9.15;3.97;;;;;;;;;;5073823;28;20064;-86
2022/05/29 04:56:48;;;;;;;19.17;11.77;;;;;;;;;;5069945;28;20056;-86
2022/05/29 04:59:16;;;;;;;11.30;7.38;;;;;;;;;;5053621;28;20049;-86
2022/05/29 05:01:43;;;;;;;6.68;4.25;;;;;;;;;;5052749;28;20136;-86
2022/05/29 05:04:10;;;;;;;5.82;4.85;;;;;;;;;;5052868;28;20448;-87
2022/05/29 05:06:37;;;;;;;15.27;12.18;;;;;;;;;;5053449;28;20114;-86
2022/05/29 05:09:05;;;;;;;23.52;13.68;;;;;;;;;;5036195;28;20057;-86
2022/05/29 05:11:32;;;;;;;17.40;13.27;;;;;;;;;;5035856;28;20501;-87
2022/05/29 05:13:59;;;;;;;8.73;5.00;;;;;;;;;;5036246;28;20143;-87
2022/05/29 05:16:27;;;;;;;12.27;5.10;;;;;;;;;;5053531;28;20044;-86
2022/05/29 05:18:54;;;;;;;10.55;3.63;;;;;;;;;;5052106;28;20087;-87
2022/05/29 05:21:21;;;;;;;8.13;3.55;;;;;;;;;;5052243;28;20053;-87
2022/05/29 05:23:48;;;;;;;9.13;2.70;;;;;;;;;;5052458;28;20053;-87
2022/05/29 05:26:16;;;;;;;8.02;2.70;;;;;;;;;;5052622;28;20051;-87
2022/05/29 05:28:43;;;;;;;13.07;2.05;;;;;;;;;;5053373;28;20049;-87
2022/05/29 05:31:11;;;;;;;4.13;2.25;;;;;;;;;;5052294;28;20139;-85
2022/05/29 05:33:38;;;;;;;6.95;2.50;;;;;;;;;;5052464;28;20057;-88
2022/05/29 05:36:06;;;;;;;8.57;2.45;;;;;;;;;;5061524;28;20077;-86
2022/05/29 05:38:33;;;;;;;6.18;2.08;;;;;;;;;;5058788;28;20084;-87
2022/05/29 05:41:00;;;;;;;8.63;2.33;;;;;;;;;;5052216;28;20132;-87
2022/05/29 05:43:28;;;;;;;5.72;2.30;;;;;;;;;;5052242;28;20049;-87
2022/05/29 05:45:55;;;;;;;5.47;2.30;;;;;;;;;;5053294;28;20063;-87
2022/05/29 05:48:25;;;;;;;9.68;4.50;;;;;;;;;;5051940;28;20132;-88
2022/05/29 05:50:57;;;;;;;11.00;3.85;;;;;;;;;;5052172;28;20128;-87
2022/05/29 05:53:24;;;;;;;11.55;3.15;;;;;;;;;;5052251;28;20543;-88
2022/05/29 05:55:51;;;;;;;9.75;3.03;;;;;;;;;;5052952;28;20080;-87
2022/05/29 05:58:19;;;;;;;11.82;3.10;;;;;;;;;;5079077;28;20135;-87
2022/05/29 06:00:47;;;;;;;16.33;6.00;;;;;;;;;;5088494;28;20052;-87
2022/05/29 06:03:14;;;;;;;114.32;78.82;;;;;;;;;;5085348;28;20044;-88
2022/05/29 06:05:42;;;;;;;30.95;10.25;;;;;;;;;;5077120;28;20059;-88
2022/05/29 06:08:09;;;;;;;33.67;16.20;;;;;;;;;;5069288;28;20053;-88
2022/05/29 06:10:37;;;;;;;15.60;4.57;;;;;;;;;;5076159;28;20131;-87
2022/05/29 06:13:05;;;;;;;111.10;76.13;;;;;;;;;;5084846;28;20417;-88
2022/05/29 06:15:33;;;;;;;48.03;27.88;;;;;;;;;;5076112;28;20508;-88
2022/05/29 06:18:00;;;;;;;15.07;3.50;;;;;;;;;;5076212;28;20047;-85
2022/05/29 06:20:27;;;;;;;14.70;8.93;;;;;;;;;;5088127;28;20048;-88
2022/05/29 06:22:54;;;;;;;14.82;4.10;;;;;;;;;;5092718;28;20051;-86
2022/05/29 06:25:22;;;;;;;12.10;2.63;;;;;;;;;;5087046;28;20131;-85
2022/05/29 06:27:49;;;;;;;7.45;2.10;;;;;;;;;;5076448;28;20054;-86
2022/05/29 06:30:17;;;;;;;5.05;1.50;;;;;;;;;;5076828;28;20456;-87
2022/05/29 06:32:44;;;;;;;7.18;1.88;;;;;;;;;;5090131;28;20131;-88
2022/05/29 06:35:12;;;;;;;3.63;1.55;;;;;;;;;;5085348;28;20503;-85
2022/05/29 06:37:39;;;;;;;4.63;1.95;;;;;;;;;;5092287;28;20059;-88
2022/05/29 06:40:07;;;;;;;4.38;1.42;;;;;;;;;;5084784;28;20052;-87
2022/05/29 06:42:35;;;;;;;3.78;1.33;;;;;;;;;;5092087;28;20497;-87
2022/05/29 06:45:03;;;;;;;5.47;1.30;;;;;;;;;;5084115;28;20080;-85
2022/05/29 06:47:32;;;;;;;3.20;1.73;;;;;;;;;;5092271;28;20054;-86
2022/05/29 06:50:00;;;;;;;4.57;1.08;;;;;;;;;;5076608;28;20084;-86
2022/05/29 06:52:29;;;;;;;4.82;1.40;;;;;;;;;;5088784;28;20052;-85
2022/05/29 06:54:56;;;;;;;3.72;1.40;;;;;;;;;;5108954;28;20029;-86
2022/05/29 06:57:43;;;;;;;4.03;1.35;;;;;;;;;;5086806;28;20147;-86
2022/05/29 07:08:36;;;;;;;6.13;2.03;;;;;;;;;;5075895;28;20045;-86
2022/05/29 07:11:24;;;;;;;8.20;1.60;;;;;;;;;;5083797;28;20127;-86
2022/05/29 07:13:51;;;;;;;4.80;1.50;;;;;;;;;;5075050;28;20151;-85
2022/05/29 07:16:18;;;;;;;2.33;0.98;;;;;;;;;;5085440;28;20054;-87
2022/05/29 07:18:50;;;;;;;4.82;1.40;;;;;;;;;;5091257;28;20048;-85
2022/05/29 07:21:20;;;;;;;4.95;1.30;;;;;;;;;;5085470;28;20051;-87
2022/05/29 07:23:47;;;;;;;3.35;1.00;;;;;;;;;;5075512;28;20049;-87
2022/05/29 07:26:16;;;;;;;4.47;1.38;;;;;;;;;;5075316;28;20080;-87
2022/05/29 07:28:44;;;;;;;4.20;1.05;;;;;;;;;;5088872;28;20052;-87
2022/05/29 07:31:12;;;;;;;3.20;0.93;;;;;;;;;;5084475;28;20048;-87
2022/05/29 07:33:40;;;;;;;4.25;1.30;;;;;;;;;;5090872;28;20284;-86
2022/05/29 07:36:09;;;;;;;9.88;1.65;;;;;;;;;;5075446;28;20148;-87
2022/05/29 07:38:37;;;;;;;3.33;1.23;;;;;;;;;;5087883;28;20052;-88
2022/05/29 07:43:18;;;;;;;3.75;1.20;;;;;;;;;;5082984;28;20140;-86
2022/05/29 07:43:54;;;;;;;3.22;1.00;;;;;;;;;;5075247;28;20040;-87
2022/05/29 07:46:22;;;;;;;5.95;1.83;;;;;;;;;;5085248;28;20075;-86
2022/05/29 07:48:51;;;;;;;19.60;1.35;;;;;;;;;;5090459;28;20072;-85
2022/05/29 07:51:18;;;;;;;4.35;1.13;;;;;;;;;;5085369;28;20140;-86
2022/05/29 07:53:46;;;;;;;5.15;1.20;;;;;;;;;;5074549;28;20052;-86
2022/05/29 07:56:16;;;;;;;4.90;1.35;;;;;;;;;;5083823;28;20135;-86
2022/05/29 07:58:46;;;;;;;3.90;1.00;;;;;;;;;;5074678;28;20056;-84
2022/05/29 08:01:15;;;;;;;2.92;0.77;;;;;;;;;;5073776;28;20132;-87
2022/05/29 08:03:43;;;;;;;5.55;1.10;;;;;;;;;;5073763;28;20450;-87
2022/05/29 08:06:10;;;;;;;2.67;1.00;;;;;;;;;;5074449;28;20197;-87
2022/05/29 08:08:37;;;;;;;3.67;0.70;;;;;;;;;;5073301;28;20044;-85
2022/05/29 08:11:04;;;;;;;6.63;2.22;;;;;;;;;;5081088;28;20108;-85
2022/05/29 08:13:32;;;;;;;2.70;1.02;;;;;;;;;;5079718;28;20079;-84
2022/05/29 08:15:59;;;;;;;3.75;1.17;;;;;;;;;;5072932;28;20049;-83
2022/05/29 08:18:26;;;;;;;2.58;0.95;;;;;;;;;;5073161;28;20051;-83
2022/05/29 08:20:55;;;;;;;3.03;0.80;;;;;;;;;;5073040;28;20063;-85
2022/05/29 08:23:23;;;;;;;3.88;0.90;;;;;;;;;;5073063;28;20512;-86
2022/05/29 08:31:14;;;;;;;4.03;1.10;;;;;;;;;;5074417;28;20044;-86
2022/05/29 08:33:43;;;;;;;5.00;0.63;;;;;;;;;;5078575;28;20045;-85
2022/05/29 08:36:14;;;;;;;2.47;0.73;;;;;;;;;;5073602;28;20075;-86
2022/05/29 08:38:42;;;;;;;2.17;0.45;;;;;;;;;;5073438;28;20067;-85
2022/05/29 08:41:15;;;;;;;3.47;0.68;;;;;;;;;;5072861;28;20587;-85
2022/05/29 08:44:02;;;;;;;2.72;0.65;;;;;;;;;;5072943;28;20045;-85
2022/05/29 08:46:41;;;;;;;2.58;0.50;;;;;;;;;;5111760;27;20352;-82
2022/05/29 08:49:10;;;;;;;5.50;1.20;;;;;;;;;;5079475;28;20456;-84
2022/05/29 08:51:56;;;;;;;2.63;0.85;;;;;;;;;;5070827;28;20485;-84
2022/05/29 08:54:29;;;;;;;2.83;1.58;;;;;;;;;;5070688;28;20076;-83
2022/05/29 08:57:09;;;;;;;2.50;0.90;;;;;;;;;;5071242;28;20472;-83
2022/05/29 08:59:52;;;;;;;1.67;0.60;;;;;;;;;;5070745;28;20114;-83
2022/05/29 09:02:20;;;;;;;;;;;;;;;;;;5053192;28;20140;-82
2022/05/29 09:04:50;;;;;;;3.50;0.95;;;;;;;;;;5070330;28;19964;-83
2022/05/29 09:07:19;;;;;;;2.15;0.70;;;;;;;;;;5070563;28;20048;-84
2022/05/29 09:09:49;;;;;;;3.78;0.73;;;;;;;;;;5070839;28;20051;-83
2022/05/29 09:12:19;;;;;;;1.35;0.90;;;;;;;;;;5052637;28;20066;-84
2022/05/29 09:14:56;;;;;;;3.28;0.80;;;;;;;;;;5070253;28;20084;-83
2022/05/29 09:17:31;;;;;;;1.55;0.70;;;;;;;;;;5052434;28;20111;-83
2022/05/29 09:20:06;;;;;;;4.28;0.70;;;;;;;;;;5052868;28;20059;-83
2022/05/29 09:22:40;;;;;;;1.45;0.50;;;;;;;;;;5070097;28;20125;-83
2022/05/29 09:25:24;;;;;;;1.63;0.50;;;;;;;;;;5052446;28;20095;-83
2022/05/29 09:27:51;;;;;;;0.60;0.60;;;;;;;;;;5069943;28;20080;-84
2022/05/29 09:30:18;;;;;;;2.40;0.70;;;;;;;;;;5052264;28;20099;-83
2022/05/29 09:32:49;;;;;;;0.82;0.50;;;;;;;;;;5070218;28;20048;-84
2022/05/29 09:35:22;;;;;;;1.10;0.50;;;;;;;;;;5052574;28;20083;-82
2022/05/29 09:37:51;;;;;;;1.90;0.60;;;;;;;;;;5070206;28;20139;-83
2022/05/29 09:40:21;;;;;;;2.00;0.63;;;;;;;;;;5070176;28;20287;-83
2022/05/29 09:42:48;;;;;;;2.53;0.63;;;;;;;;;;5069751;28;20144;-83
2022/05/29 09:45:25;;;;;;;2.17;0.70;;;;;;;;;;5060341;28;20060;-84
2022/05/29 09:50:38;;;;;;;1.15;0.70;;;;;;;;;;5049688;28;20268;-84
2022/05/29 09:53:28;;;;;;;1.10;0.60;;;;;;;;;;5049978;28;20080;-83
2022/05/29 09:56:01;;;;;;;2.25;0.60;;;;;;;;;;5024897;28;20585;-83
2022/05/29 09:58:30;;;;;;;3.90;0.63;;;;;;;;;;5018301;28;20133;-83
2022/05/29 10:01:03;;;;;;;0.93;0.50;;;;;;;;;;5018536;28;20468;-84
2022/05/29 10:03:30;;;;;;;1.00;0.40;;;;;;;;;;5018601;28;20124;-83
2022/05/29 10:06:07;;;;;;;1.60;0.60;;;;;;;;;;5036036;28;20052;-81
2022/05/29 10:08:34;;;;;;;1.00;0.60;;;;;;;;;;5036204;28;20475;-84
2022/05/29 10:11:17;;;;;;;3.33;0.40;;;;;;;;;;5018174;28;20077;-82
2022/05/29 10:13:45;;;;;;;1.15;0.43;;;;;;;;;;5035826;28;20049;-82
2022/05/29 10:16:13;;;;;;;0.85;0.40;;;;;;;;;;5018790;28;20422;-82
2022/05/29 10:18:41;;;;;;;1.20;0.40;;;;;;;;;;5018256;28;20053;-82
2022/05/29 10:21:19;;;;;;;1.65;0.50;;;;;;;;;;5035513;28;20146;-82
2022/05/29 10:23:52;;;;;;;0.63;0.30;;;;;;;;;;5018294;28;20053;-83
2022/05/29 10:26:22;;;;;;;1.10;0.27;;;;;;;;;;5017975;28;20072;-83
2022/05/29 10:28:50;;;;;;;1.33;1.17;;;;;;;;;;5017690;28;20414;-82
2022/05/29 10:31:37;;;;;;;1.65;0.60;;;;;;;;;;5017811;28;20042;-82
2022/05/29 10:34:06;;;;;;;0.70;0.50;;;;;;;;;;5018118;28;20053;-82
2022/05/29 10:36:34;;;;;;;2.15;1.30;;;;;;;;;;5021073;28;20082;-82
2022/05/29 10:39:20;;;;;;;1.25;0.50;;;;;;;;;;5029902;28;20148;-83
2022/05/29 10:41:48;;;;;;;5.90;4.68;;;;;;;;;;5047899;28;20054;-82
2022/05/29 10:44:34;;;;;;;4.13;2.35;;;;;;;;;;5029330;28;20053;-83
2022/05/29 10:47:07;;;;;;;3.38;2.30;;;;;;;;;;5024851;28;20069;-82
2022/05/29 10:49:47;;;;;;;9.15;6.25;;;;;;;;;;5024346;28;20120;-83
2022/05/29 10:52:51;;;;;;;0.40;0.40;;;;;;;;;;5023208;28;20506;-82
2022/05/29 10:55:27;;;;;;;20.83;13.68;;;;;;;;;;5038979;28;20049;-83
2022/05/29 10:58:07;;;;;;;1.05;0.93;;;;;;;;;;5021153;28;20075;-83
2022/05/29 11:00:41;;;;;;;0.85;0.40;;;;;;;;;;5036883;28;20132;-82
2022/05/29 11:03:17;;;;;;;1.02;0.30;;;;;;;;;;5036890;28;20069;-83
2022/05/29 11:05:45;;;;;;;0.40;0.20;;;;;;;;;;5020720;28;20049;-83
2022/05/29 11:08:18;;;;;;;1.45;0.50;;;;;;;;;;5018191;28;20331;-83
2022/05/29 11:10:45;;;;;;;;;;;;;;;;;;5020818;28;20137;-84
2022/05/29 11:13:32;;;;;;;4.25;3.88;;;;;;;;;;5037314;28;20412;-83
2022/05/29 11:16:08;;;;;;;0.68;0.40;;;;;;;;;;5035729;28;20049;-82
2022/05/29 11:18:43;;;;;;;2.45;0.77;;;;;;;;;;5019691;28;20060;-83
2022/05/29 11:21:19;;;;;;;1.08;0.50;;;;;;;;;;5037321;28;20104;-82
2022/05/29 11:24:02;;;;;;;2.45;0.80;;;;;;;;;;5036395;28;20053;-82
2022/05/29 11:26:43;;;;;;;2.25;0.98;;;;;;;;;;5018858;28;20065;-83
2022/05/29 11:29:24;;;;;;;2.15;0.70;;;;;;;;;;5019180;28;20132;-83
2022/05/29 11:32:09;;;;;;;1.25;0.80;;;;;;;;;;5020854;28;20481;-83
2022/05/29 11:34:36;;;;;;;2.38;2.17;;;;;;;;;;5035765;28;20136;-83
2022/05/29 11:37:22;;;;;;;2.55;0.80;;;;;;;;;;5019205;28;20103;-82
2022/05/29 11:40:06;;;;;;;1.75;1.65;;;;;;;;;;5019914;28;20049;-83
2022/05/29 11:42:41;;;;;;;1.80;1.70;;;;;;;;;;5018670;28;20096;-82
2022/05/29 11:45:15;;;;;;;0.98;0.77;;;;;;;;;;5031736;28;20092;-83
2022/05/29 11:51:08;;;;;;;1.00;0.90;;;;;;;;;;5057247;28;20071;-83
2022/05/29 11:53:38;;;;;;;0.47;0.30;;;;;;;;;;5054198;28;20513;-82
2022/05/29 11:56:08;;;;;;;1.05;0.40;;;;;;;;;;5056453;28;20128;-83
2022/05/29 11:58:42;;;;;;;0.75;0.50;;;;;;;;;;5054281;28;20127;-83
2022/05/29 12:01:18;;;;;;;0.70;0.30;;;;;;;;;;5056144;28;20080;-83
2022/05/29 12:03:51;;;;;;;0.80;0.30;;;;;;;;;;5054239;28;20422;-83
2022/05/29 12:06:25;;;;;;;0.77;0.30;;;;;;;;;;5054022;28;20092;-83
2022/05/29 12:09:30;;;;;;;1.38;0.60;;;;;;;;;;5054023;28;20049;-83
2022/05/29 12:12:02;;;;;;;1.25;0.50;;;;;;;;;;4958978;28;20047;-84
2022/05/29 12:14:40;;;;;;;0.52;0.25;;;;;;;;;;4974323;28;20081;-83
2022/05/29 12:17:24;;;;;;;0.68;0.40;;;;;;;;;;5013329;28;20048;-82
2022/05/29 12:19:54;;;;;;;0.40;0.22;;;;;;;;;;5054162;28;20076;-83
2022/05/29 12:22:26;;;;;;;0.22;0.22;;;;;;;;;;5054540;28;20076;-82
2022/05/29 12:24:54;;;;;;;3.28;2.88;;;;;;;;;;5055587;28;20076;-82
2022/05/29 12:27:22;;;;;;;0.43;0.25;;;;;;;;;;5055009;28;20521;-82
2022/05/29 12:29:52;;;;;;;1.35;0.50;;;;;;;;;;5053942;28;20055;-83
2022/05/29 12:32:21;;;;;;;0.75;0.30;;;;;;;;;;5053427;28;20077;-83
2022/05/29 12:34:59;;;;;;;0.47;0.30;;;;;;;;;;5055133;28;20478;-83
2022/05/29 12:37:48;;;;;;;1.67;0.47;;;;;;;;;;5055028;28;20053;-83
2022/05/29 12:40:36;;;;;;;0.77;0.38;;;;;;;;;;5053484;28;20128;-83
2022/05/29 12:43:26;;;;;;;1.63;0.45;;;;;;;;;;5053484;28;20087;-83
2022/05/29 12:46:06;;;;;;;0.73;0.30;;;;;;;;;;5008105;28;20094;-83
2022/05/29 12:48:36;;;;;;;1.13;0.28;;;;;;;;;;5053838;28;20084;-82
2022/05/29 12:51:06;;;;;;;1.35;0.40;;;;;;;;;;5053002;28;20128;-82
2022/05/29 12:53:33;;;;;;;0.93;0.47;;;;;;;;;;5053000;28;20045;-82
2022/05/29 12:56:19;;;;;;;0.73;0.50;;;;;;;;;;5052598;28;20127;-82
2022/05/29 12:58:52;;;;;;;1.75;0.70;;;;;;;;;;5052602;28;20053;-83
2022/05/29 13:01:30;;;;;;;0.47;0.28;;;;;;;;;;5052736;28;20497;-82
2022/05/29 13:03:57;;;;;;;3.03;0.60;;;;;;;;;;5052498;28;20096;-80
2022/05/29 13:06:27;;;;;;;0.60;0.35;;;;;;;;;;5052251;28;20058;-82
2022/05/29 13:09:10;;;;;;;0.85;0.50;;;;;;;;;;5053548;28;20041;-82
2022/05/29 13:11:40;;;;;;;0.77;0.40;;;;;;;;;;5052894;28;20489;-83
2022/05/29 13:14:09;;;;;;;1.08;0.40;;;;;;;;;;5052216;28;20132;-82
2022/05/29 13:16:38;;;;;;;1.85;0.50;;;;;;;;;;5054173;28;20095;-82
2022/05/29 13:19:14;;;;;;;0.80;0.50;;;;;;;;;;5052455;28;20049;-81
2022/05/29 13:21:54;;;;;;;2.55;0.73;;;;;;;;;;5053084;28;20407;-83
2022/05/29 13:24:23;;;;;;;1.73;0.70;;;;;;;;;;5054328;28;20107;-82
2022/05/29 13:27:09;;;;;;;0.95;0.50;;;;;;;;;;5053540;28;20091;-82
2022/05/29 13:29:41;;;;;;;0.70;0.57;;;;;;;;;;5051981;28;20053;-82
2022/05/29 13:32:15;;;;;;;1.92;0.63;;;;;;;;;;5053995;28;20045;-82
2022/05/29 13:34:43;;;;;;;1.80;0.50;;;;;;;;;;5056020;28;20421;-83
2022/05/29 13:37:29;;;;;;;3.33;1.17;;;;;;;;;;5055789;28;20136;-82
2022/05/29 13:40:00;;;;;;;1.08;0.50;;;;;;;;;;5056718;28;20131;-82
2022/05/29 13:42:29;;;;;;;0.57;0.50;;;;;;;;;;5055737;28;20044;-82
2022/05/29 13:44:56;;;;;;;1.15;0.50;;;;;;;;;;5055968;28;20569;-82
2022/05/29 13:47:24;;;;;;;1.67;0.75;;;;;;;;;;5056079;28;20080;-82
2022/05/29 13:49:59;;;;;;;0.57;0.45;;;;;;;;;;5055602;28;20049;-82
2022/05/29 13:52:39;;;;;;;2.88;0.55;;;;;;;;;;5056824;28;20045;-83
2022/05/29 13:55:06;;;;;;;2.38;0.50;;;;;;;;;;5055852;28;20487;-83
2022/05/29 14:03:58;;;;;;;1.35;0.70;;;;;;;;;;5056701;28;20084;-84
2022/05/29 14:06:47;;;;;;;0.40;0.30;;;;;;;;;;5055593;28;20413;-83
2022/05/29 14:09:14;;;;;;;1.05;0.55;;;;;;;;;;5056320;28;20083;-82
2022/05/29 14:11:49;;;;;;;2.50;0.50;;;;;;;;;;5056810;28;20102;-83
2022/05/29 14:14:35;;;;;;;0.30;0.30;;;;;;;;;;5056344;28;20052;-82
2022/05/29 14:17:02;;;;;;;0.90;0.40;;;;;;;;;;5055605;28;20095;-83
2022/05/29 14:19:45;;;;;;;0.82;0.40;;;;;;;;;;5054845;28;20505;-82
2022/05/29 14:25:13;;;;;;;1.30;0.47;;;;;;;;;;5056256;28;20072;-83
2022/05/29 14:28:13;;;;;;;0.60;0.60;;;;;;;;;;5054842;28;20131;-82
2022/05/29 14:31:16;;;;;;;0.90;0.40;;;;;;;;;;5012146;28;20106;-83
2022/05/29 14:33:44;;;;;;;;;;;;;;;;;;4959565;28;20503;-84
2022/05/29 14:36:32;;;;;;;1.17;0.40;;;;;;;;;;5036672;28;19925;-82
2022/05/29 14:38:59;;;;;;;0.55;0.55;;;;;;;;;;5015241;28;20089;-83
2022/05/29 14:41:34;;;;;;;0.40;0.40;;;;;;;;;;5054124;28;20590;-83
2022/05/29 14:44:05;;;;;;;1.23;0.65;;;;;;;;;;5054140;28;20126;-83
2022/05/29 14:46:57;;;;;;;0.77;0.30;;;;;;;;;;5035151;28;20088;-83
2022/05/29 14:49:26;;;;;;;1.65;0.38;;;;;;;;;;5017701;28;20049;-82
2022/05/29 14:52:02;;;;;;;1.45;0.60;;;;;;;;;;5035754;28;20506;-82
2022/05/29 14:54:35;;;;;;;0.50;0.50;;;;;;;;;;5035555;28;20051;-82
2022/05/29 14:57:16;;;;;;;0.95;0.45;;;;;;;;;;5019746;28;20060;-82
2022/05/29 14:59:44;;;;;;;0.50;0.43;;;;;;;;;;5017730;28;20498;-82
2022/05/29 15:02:19;;;;;;;1.98;0.73;;;;;;;;;;5017518;28;20100;-81
2022/05/29 15:04:48;;;;;;;1.60;0.60;;;;;;;;;;5017706;28;20053;-82
2022/05/29 15:10:33;;;;;;;4.45;1.35;;;;;;;;;;5034959;28;20085;-83
2022/05/29 15:13:24;;;;;;;6.60;1.83;;;;;;;;;;5017170;28;20133;-83
2022/05/29 15:15:59;;;;;;;5.28;1.70;;;;;;;;;;5016790;28;20057;-82
2022/05/29 15:18:33;;;;;;;3.03;0.55;;;;;;;;;;5034619;28;20045;-82
2022/05/29 15:26:46;;;;;;;2.88;0.93;;;;;;;;;;5035005;28;20045;-82
2022/05/29 15:29:19;;;;;;;4.88;1.40;;;;;;;;;;5034660;28;20111;-82
2022/05/29 15:31:48;;;;;;;2.35;0.90;;;;;;;;;;5016853;28;20087;-82
2022/05/29 15:34:29;;;;;;;2.42;1.00;;;;;;;;;;5034036;28;20049;-82
2022/05/29 15:36:59;;;;;;;5.35;1.00;;;;;;;;;;5016550;28;20077;-82
2022/05/29 15:39:49;;;;;;;1.10;0.80;;;;;;;;;;5033669;28;20136;-82
2022/05/29 15:42:17;;;;;;;2.97;0.60;;;;;;;;;;5011489;28;20128;-82
2022/05/29 15:45:10;;;;;;;1.60;0.85;;;;;;;;;;5022150;28;20107;-82
2022/05/29 15:47:40;;;;;;;4.05;0.73;;;;;;;;;;5053765;28;20485;-82
2022/05/29 15:50:27;;;;;;;1.48;0.80;;;;;;;;;;5054926;28;20056;-82
2022/05/29 15:52:54;;;;;;;1.25;0.88;;;;;;;;;;5054902;28;20077;-82
2022/05/29 15:55:21;;;;;;;3.38;0.60;;;;;;;;;;5052275;28;20049;-82
2022/05/29 15:57:52;;;;;;;1.73;0.65;;;;;;;;;;5052899;28;20724;-82